首页
METAR-TAF:

METAR-TAF

机场 :

水牛城, 紐約州, 美国

纬度: 42-56-27N, 经度: 078-44-09W, 海拔: 220米

当前天气观测

该预报发布于35分钟前的12:54 UTC
风速4节,风向
温度 18°C
湿度 73%
气压 1014 hPa
能見度: 16.1公里
多云层高于4700英尺
多云层高于10000英尺
多云层高于25000英尺

METAR: KBUF 181254Z 09004KT 10SM BKN047 BKN100 BKN250 18/13 A2995 RMK AO2 SLP139 T01780128

时间: 09:29 (13:29 UTC)

预报

该预报发布于2小时和9分钟前的11:20 UTC
预报有效从18日的 12点(UTC)到 19日的 12点(UTC)
风速6节,风向北转东北
能見度: 10公里
散云层高于3000英尺
多云层高于6000英尺
从 18日的 1400点(UTC)
风速8节,风向北转东北
能見度: 10公里
多云层高于7000英尺
从 18日的 1600点(UTC)
风速7节,风向北转西北
能見度: 10公里
散云层高于12000英尺
从 18日的 2300点(UTC)
风速4节,风向西转西北
能見度: 10公里
散云层高于10000英尺
从 19日的 0200点(UTC)
风速4节,风向西南
能見度: 10公里
散云层高于15000英尺

TAF: KBUF 181120Z 1812/1912 03006KT P6SM SCT030 BKN060 FM181400 02008KT P6SM BKN070 FM181600 34007KT P6SM SCT120 FM182300 29004KT P6SM SCT100 FM190200 23004KT P6SM SCT150

超过4000个机场的气象观测和天气预报(METAR&TAF报告)。

可查询的气象台以黄色和红色小点在地图上表示。

将鼠标移到小点上方,可查看气象台名称。

然后点击查看天气观测和预报。

如需切换地图:点击带黑十字的绿色按钮放大地图;点击带横线的绿色按钮缩小地图;或者点击绿色箭头查看邻近地区的地图。


METAR-TAF: